Terminal Aerodrome Forecast
Issued by NWS Mt. Holly, NJ

Current Version | Previous Version | Text Only | Print | Product List | Glossary On
Versions: 1 2 3 4 5 6 7 8 9 10 11 12 13 14 15 16 17 18 19 20 21 22 23 24 25 26
000
FTUS41 KPHI 231300 AAA
TAFILG
TAF AMD
KILG 231312Z 2313/2412 08008KT P6SM SCT025 BKN070
     FM231600 10009KT P6SM -SHRA SCT025 BKN050
     FM232300 08009KT P6SM SCT050 BKN120
     FM240600 02006KT P6SM SCT050 SCT120=

USA.gov is the U.S. government's official web portal to all federal, state and local government web resources and services.